sensor_id;sensor_type;location;lat;lon;timestamp;P1;durP1;ratioP1;P2;durP2;ratioP2
19903;SDS011;10114;50.970;4.962;2022-08-04T00:01:53;5.63;;;2.10;;
19903;SDS011;10114;50.970;4.962;2022-08-04T00:07:02;6.20;;;1.73;;
19903;SDS011;10114;50.970;4.962;2022-08-04T00:09:46;8.55;;;1.60;;
19903;SDS011;10114;50.970;4.962;2022-08-04T00:12:15;5.25;;;1.80;;
19903;SDS011;10114;50.970;4.962;2022-08-04T00:14:49;4.97;;;2.08;;
19903;SDS011;10114;50.970;4.962;2022-08-04T00:17:22;6.20;;;1.75;;
19903;SDS011;10114;50.970;4.962;2022-08-04T00:19:52;7.20;;;1.70;;
19903;SDS011;10114;50.970;4.962;2022-08-04T00:22:21;5.82;;;1.77;;
19903;SDS011;10114;50.970;4.962;2022-08-04T00:24:47;5.13;;;1.45;;
19903;SDS011;10114;50.970;4.962;2022-08-04T00:27:14;6.72;;;1.73;;
19903;SDS011;10114;50.970;4.962;2022-08-04T00:29:40;5.25;;;1.80;;
19903;SDS011;10114;50.970;4.962;2022-08-04T00:32:06;7.32;;;1.77;;
19903;SDS011;10114;50.970;4.962;2022-08-04T00:34:33;7.32;;;1.60;;
19903;SDS011;10114;50.970;4.962;2022-08-04T00:37:00;6.03;;;1.65;;
19903;SDS011;10114;50.970;4.962;2022-08-04T00:39:27;6.47;;;1.70;;
19903;SDS011;10114;50.970;4.962;2022-08-04T00:49:55;6.75;;;1.50;;
19903;SDS011;10114;50.970;4.962;2022-08-04T00:52:28;4.55;;;1.52;;
19903;SDS011;10114;50.970;4.962;2022-08-04T00:57:29;8.30;;;1.67;;
19903;SDS011;10114;50.970;4.962;2022-08-04T01:05:21;6.32;;;1.42;;
19903;SDS011;10114;50.970;4.962;2022-08-04T01:08:45;6.28;;;1.60;;
19903;SDS011;10114;50.970;4.962;2022-08-04T01:13:22;10.13;;;1.50;;
19903;SDS011;10114;50.970;4.962;2022-08-04T01:18:21;8.98;;;1.95;;
19903;SDS011;10114;50.970;4.962;2022-08-04T01:20:58;4.00;;;1.45;;
19903;SDS011;10114;50.970;4.962;2022-08-04T01:23:48;3.63;;;1.50;;
19903;SDS011;10114;50.970;4.962;2022-08-04T01:34:11;4.25;;;1.30;;
19903;SDS011;10114;50.970;4.962;2022-08-04T01:36:39;7.45;;;1.45;;
19903;SDS011;10114;50.970;4.962;2022-08-04T01:39:07;6.35;;;1.60;;
19903;SDS011;10114;50.970;4.962;2022-08-04T01:41:53;7.15;;;1.58;;
19903;SDS011;10114;50.970;4.962;2022-08-04T01:44:20;6.88;;;1.33;;
19903;SDS011;10114;50.970;4.962;2022-08-04T01:46:47;6.38;;;1.60;;
19903;SDS011;10114;50.970;4.962;2022-08-04T01:49:15;10.10;;;1.70;;
19903;SDS011;10114;50.970;4.962;2022-08-04T01:51:41;5.05;;;1.50;;
19903;SDS011;10114;50.970;4.962;2022-08-04T01:54:09;8.68;;;2.10;;
19903;SDS011;10114;50.970;4.962;2022-08-04T01:56:36;4.97;;;1.50;;
19903;SDS011;10114;50.970;4.962;2022-08-04T01:59:02;7.00;;;1.75;;
19903;SDS011;10114;50.970;4.962;2022-08-04T02:01:28;7.55;;;1.75;;
19903;SDS011;10114;50.970;4.962;2022-08-04T02:03:59;4.30;;;1.60;;
19903;SDS011;10114;50.970;4.962;2022-08-04T02:07:01;4.22;;;1.60;;
19903;SDS011;10114;50.970;4.962;2022-08-04T02:09:22;5.88;;;1.80;;
19903;SDS011;10114;50.970;4.962;2022-08-04T02:11:52;5.95;;;1.60;;
19903;SDS011;10114;50.970;4.962;2022-08-04T02:14:26;7.28;;;2.03;;
19903;SDS011;10114;50.970;4.962;2022-08-04T02:17:11;6.18;;;1.58;;
19903;SDS011;10114;50.970;4.962;2022-08-04T02:22:26;8.93;;;2.15;;
19903;SDS011;10114;50.970;4.962;2022-08-04T02:24:57;6.95;;;1.70;;
19903;SDS011;10114;50.970;4.962;2022-08-04T02:27:27;8.15;;;1.80;;
19903;SDS011;10114;50.970;4.962;2022-08-04T02:29:56;6.40;;;1.83;;
19903;SDS011;10114;50.970;4.962;2022-08-04T02:32:24;11.75;;;2.15;;
19903;SDS011;10114;50.970;4.962;2022-08-04T02:38:26;6.45;;;2.10;;
19903;SDS011;10114;50.970;4.962;2022-08-04T02:40:45;8.45;;;2.05;;
19903;SDS011;10114;50.970;4.962;2022-08-04T02:43:11;4.35;;;1.65;;
19903;SDS011;10114;50.970;4.962;2022-08-04T02:45:40;7.63;;;1.95;;
19903;SDS011;10114;50.970;4.962;2022-08-04T02:48:07;6.97;;;2.42;;
19903;SDS011;10114;50.970;4.962;2022-08-04T02:50:34;4.03;;;1.67;;
19903;SDS011;10114;50.970;4.962;2022-08-04T02:53:02;7.10;;;2.08;;
19903;SDS011;10114;50.970;4.962;2022-08-04T02:55:29;6.63;;;2.10;;
19903;SDS011;10114;50.970;4.962;2022-08-04T02:57:57;9.52;;;2.20;;
19903;SDS011;10114;50.970;4.962;2022-08-04T03:00:23;6.72;;;1.58;;
19903;SDS011;10114;50.970;4.962;2022-08-04T03:05:20;6.75;;;1.90;;
19903;SDS011;10114;50.970;4.962;2022-08-04T03:07:58;4.75;;;1.60;;
19903;SDS011;10114;50.970;4.962;2022-08-04T03:15:41;6.32;;;1.63;;
19903;SDS011;10114;50.970;4.962;2022-08-04T03:25:52;4.97;;;1.40;;
19903;SDS011;10114;50.970;4.962;2022-08-04T03:28:28;4.65;;;1.77;;
19903;SDS011;10114;50.970;4.962;2022-08-04T03:31:06;6.22;;;1.55;;
19903;SDS011;10114;50.970;4.962;2022-08-04T03:41:55;6.78;;;1.98;;
19903;SDS011;10114;50.970;4.962;2022-08-04T03:44:32;4.68;;;1.50;;
19903;SDS011;10114;50.970;4.962;2022-08-04T03:47:27;6.07;;;1.50;;
19903;SDS011;10114;50.970;4.962;2022-08-04T03:49:55;5.50;;;1.67;;
19903;SDS011;10114;50.970;4.962;2022-08-04T04:19:15;12.90;;;2.20;;
19903;SDS011;10114;50.970;4.962;2022-08-04T04:32:20;9.45;;;3.03;;
19903;SDS011;10114;50.970;4.962;2022-08-04T04:40:40;11.65;;;2.50;;
19903;SDS011;10114;50.970;4.962;2022-08-04T04:45:40;7.38;;;2.38;;
19903;SDS011;10114;50.970;4.962;2022-08-04T04:48:14;7.30;;;3.67;;
19903;SDS011;10114;50.970;4.962;2022-08-04T04:50:57;11.90;;;3.45;;
19903;SDS011;10114;50.970;4.962;2022-08-04T04:53:32;11.27;;;3.60;;
19903;SDS011;10114;50.970;4.962;2022-08-04T04:56:05;9.23;;;3.67;;
19903;SDS011;10114;50.970;4.962;2022-08-04T04:58:33;8.13;;;4.03;;
19903;SDS011;10114;50.970;4.962;2022-08-04T05:11:38;9.65;;;4.28;;
19903;SDS011;10114;50.970;4.962;2022-08-04T05:14:19;13.90;;;3.33;;
19903;SDS011;10114;50.970;4.962;2022-08-04T05:16:50;15.45;;;4.63;;
19903;SDS011;10114;50.970;4.962;2022-08-04T05:24:23;10.23;;;4.82;;
19903;SDS011;10114;50.970;4.962;2022-08-04T05:26:51;10.10;;;4.70;;
19903;SDS011;10114;50.970;4.962;2022-08-04T05:29:25;11.45;;;5.20;;
19903;SDS011;10114;50.970;4.962;2022-08-04T05:31:52;12.13;;;4.72;;
19903;SDS011;10114;50.970;4.962;2022-08-04T05:34:27;13.90;;;5.55;;
19903;SDS011;10114;50.970;4.962;2022-08-04T05:37:06;16.42;;;5.45;;
19903;SDS011;10114;50.970;4.962;2022-08-04T05:39:35;11.48;;;4.93;;
19903;SDS011;10114;50.970;4.962;2022-08-04T05:42:01;10.70;;;5.07;;
19903;SDS011;10114;50.970;4.962;2022-08-04T05:44:28;17.27;;;5.90;;
19903;SDS011;10114;50.970;4.962;2022-08-04T05:46:56;13.38;;;4.88;;
19903;SDS011;10114;50.970;4.962;2022-08-04T05:49:23;13.13;;;5.18;;
19903;SDS011;10114;50.970;4.962;2022-08-04T05:51:50;11.93;;;5.72;;
19903;SDS011;10114;50.970;4.962;2022-08-04T05:54:16;11.60;;;5.22;;
19903;SDS011;10114;50.970;4.962;2022-08-04T05:56:43;12.20;;;5.00;;
19903;SDS011;10114;50.970;4.962;2022-08-04T05:59:09;14.05;;;6.40;;
19903;SDS011;10114;50.970;4.962;2022-08-04T06:01:35;15.23;;;5.78;;
19903;SDS011;10114;50.970;4.962;2022-08-04T06:04:02;14.30;;;5.75;;
19903;SDS011;10114;50.970;4.962;2022-08-04T06:06:29;11.77;;;5.93;;
19903;SDS011;10114;50.970;4.962;2022-08-04T06:08:55;12.95;;;5.90;;
19903;SDS011;10114;50.970;4.962;2022-08-04T06:11:21;15.23;;;5.57;;
19903;SDS011;10114;50.970;4.962;2022-08-04T06:13:56;15.27;;;5.45;;
19903;SDS011;10114;50.970;4.962;2022-08-04T06:16:24;11.43;;;4.88;;
19903;SDS011;10114;50.970;4.962;2022-08-04T06:18:52;14.38;;;5.13;;
19903;SDS011;10114;50.970;4.962;2022-08-04T06:21:19;14.73;;;5.40;;
19903;SDS011;10114;50.970;4.962;2022-08-04T06:23:47;11.55;;;5.22;;
19903;SDS011;10114;50.970;4.962;2022-08-04T06:26:13;9.40;;;4.20;;
19903;SDS011;10114;50.970;4.962;2022-08-04T06:28:44;6.65;;;3.63;;
19903;SDS011;10114;50.970;4.962;2022-08-04T06:31:11;14.73;;;4.20;;
19903;SDS011;10114;50.970;4.962;2022-08-04T06:33:37;13.77;;;4.50;;
19903;SDS011;10114;50.970;4.962;2022-08-04T06:36:04;9.27;;;4.13;;
19903;SDS011;10114;50.970;4.962;2022-08-04T06:38:31;8.85;;;3.83;;
19903;SDS011;10114;50.970;4.962;2022-08-04T06:41:00;7.90;;;2.90;;
19903;SDS011;10114;50.970;4.962;2022-08-04T06:43:28;8.80;;;2.95;;
19903;SDS011;10114;50.970;4.962;2022-08-04T06:45:54;9.65;;;2.95;;
19903;SDS011;10114;50.970;4.962;2022-08-04T06:48:21;7.65;;;3.10;;
19903;SDS011;10114;50.970;4.962;2022-08-04T06:50:47;9.50;;;3.33;;
19903;SDS011;10114;50.970;4.962;2022-08-04T06:53:14;7.65;;;3.05;;
19903;SDS011;10114;50.970;4.962;2022-08-04T06:55:44;9.93;;;2.58;;
19903;SDS011;10114;50.970;4.962;2022-08-04T06:58:11;10.05;;;2.88;;
19903;SDS011;10114;50.970;4.962;2022-08-04T07:00:38;10.45;;;2.58;;
19903;SDS011;10114;50.970;4.962;2022-08-04T07:03:05;10.40;;;2.75;;
19903;SDS011;10114;50.970;4.962;2022-08-04T07:05:31;10.77;;;2.15;;
19903;SDS011;10114;50.970;4.962;2022-08-04T07:07:58;10.63;;;2.42;;
19903;SDS011;10114;50.970;4.962;2022-08-04T07:10:28;9.35;;;2.55;;
19903;SDS011;10114;50.970;4.962;2022-08-04T07:12:57;8.00;;;2.35;;
19903;SDS011;10114;50.970;4.962;2022-08-04T07:15:24;10.35;;;2.15;;
19903;SDS011;10114;50.970;4.962;2022-08-04T07:17:50;7.32;;;2.10;;
19903;SDS011;10114;50.970;4.962;2022-08-04T07:20:17;8.23;;;2.00;;
19903;SDS011;10114;50.970;4.962;2022-08-04T07:22:43;9.23;;;2.47;;
19903;SDS011;10114;50.970;4.962;2022-08-04T07:25:10;17.70;;;2.63;;
19903;SDS011;10114;50.970;4.962;2022-08-04T07:27:37;11.38;;;2.47;;
19903;SDS011;10114;50.970;4.962;2022-08-04T07:30:06;8.80;;;1.80;;
19903;SDS011;10114;50.970;4.962;2022-08-04T07:32:32;11.60;;;2.65;;
19903;SDS011;10114;50.970;4.962;2022-08-04T07:34:59;11.88;;;2.28;;
19903;SDS011;10114;50.970;4.962;2022-08-04T07:37:26;7.50;;;2.10;;
19903;SDS011;10114;50.970;4.962;2022-08-04T07:39:52;10.10;;;1.83;;
19903;SDS011;10114;50.970;4.962;2022-08-04T07:42:18;10.82;;;2.20;;
19903;SDS011;10114;50.970;4.962;2022-08-04T07:44:45;7.20;;;2.53;;
19903;SDS011;10114;50.970;4.962;2022-08-04T07:47:11;10.32;;;2.38;;
19903;SDS011;10114;50.970;4.962;2022-08-04T07:49:37;11.18;;;2.17;;
19903;SDS011;10114;50.970;4.962;2022-08-04T07:52:03;11.20;;;1.60;;
19903;SDS011;10114;50.970;4.962;2022-08-04T07:54:31;12.30;;;2.03;;
19903;SDS011;10114;50.970;4.962;2022-08-04T07:56:57;6.60;;;1.92;;
19903;SDS011;10114;50.970;4.962;2022-08-04T07:59:23;5.43;;;1.30;;
19903;SDS011;10114;50.970;4.962;2022-08-04T08:01:50;11.60;;;1.80;;
19903;SDS011;10114;50.970;4.962;2022-08-04T08:04:16;9.75;;;1.60;;
19903;SDS011;10114;50.970;4.962;2022-08-04T08:06:42;9.43;;;1.70;;
19903;SDS011;10114;50.970;4.962;2022-08-04T08:09:15;11.65;;;1.67;;
19903;SDS011;10114;50.970;4.962;2022-08-04T08:11:43;16.63;;;2.33;;
19903;SDS011;10114;50.970;4.962;2022-08-04T08:14:09;5.38;;;1.38;;
19903;SDS011;10114;50.970;4.962;2022-08-04T08:16:35;6.10;;;1.63;;
19903;SDS011;10114;50.970;4.962;2022-08-04T08:19:03;6.10;;;1.35;;
19903;SDS011;10114;50.970;4.962;2022-08-04T08:21:29;8.02;;;1.48;;
19903;SDS011;10114;50.970;4.962;2022-08-04T08:23:56;7.95;;;1.45;;
19903;SDS011;10114;50.970;4.962;2022-08-04T08:26:22;11.13;;;1.95;;
19903;SDS011;10114;50.970;4.962;2022-08-04T08:28:48;8.77;;;1.67;;
19903;SDS011;10114;50.970;4.962;2022-08-04T08:31:14;7.28;;;1.45;;
19903;SDS011;10114;50.970;4.962;2022-08-04T08:33:40;6.95;;;1.83;;
19903;SDS011;10114;50.970;4.962;2022-08-04T08:36:08;6.68;;;1.67;;
19903;SDS011;10114;50.970;4.962;2022-08-04T08:38:48;7.80;;;1.80;;
19903;SDS011;10114;50.970;4.962;2022-08-04T08:41:37;14.18;;;2.25;;
19903;SDS011;10114;50.970;4.962;2022-08-04T08:44:44;10.63;;;2.33;;
19903;SDS011;10114;50.970;4.962;2022-08-04T08:52:13;12.18;;;2.67;;
19903;SDS011;10114;50.970;4.962;2022-08-04T08:57:35;9.32;;;1.92;;
19903;SDS011;10114;50.970;4.962;2022-08-04T09:05:10;8.52;;;2.83;;
19903;SDS011;10114;50.970;4.962;2022-08-04T09:10:27;9.77;;;2.25;;
19903;SDS011;10114;50.970;4.962;2022-08-04T09:13:03;10.50;;;2.80;;
19903;SDS011;10114;50.970;4.962;2022-08-04T09:15:38;13.18;;;3.15;;
19903;SDS011;10114;50.970;4.962;2022-08-04T09:20:46;7.68;;;2.25;;
19903;SDS011;10114;50.970;4.962;2022-08-04T09:23:19;11.93;;;2.60;;
19903;SDS011;10114;50.970;4.962;2022-08-04T09:25:48;9.32;;;2.20;;
19903;SDS011;10114;50.970;4.962;2022-08-04T09:28:25;13.60;;;2.72;;
19903;SDS011;10114;50.970;4.962;2022-08-04T09:31:05;8.57;;;2.20;;
19903;SDS011;10114;50.970;4.962;2022-08-04T09:33:43;11.02;;;2.42;;
19903;SDS011;10114;50.970;4.962;2022-08-04T09:37:00;9.52;;;2.35;;
19903;SDS011;10114;50.970;4.962;2022-08-04T09:39:06;13.60;;;2.45;;
19903;SDS011;10114;50.970;4.962;2022-08-04T09:44:34;14.30;;;2.45;;
19903;SDS011;10114;50.970;4.962;2022-08-04T09:47:08;7.50;;;1.88;;
19903;SDS011;10114;50.970;4.962;2022-08-04T09:49:38;12.90;;;2.58;;
19903;SDS011;10114;50.970;4.962;2022-08-04T09:57:38;8.98;;;2.13;;
19903;SDS011;10114;50.970;4.962;2022-08-04T10:00:10;12.30;;;2.50;;
19903;SDS011;10114;50.970;4.962;2022-08-04T10:02:41;11.77;;;2.97;;
19903;SDS011;10114;50.970;4.962;2022-08-04T10:05:11;10.30;;;2.80;;
19903;SDS011;10114;50.970;4.962;2022-08-04T10:07:52;9.40;;;2.35;;
19903;SDS011;10114;50.970;4.962;2022-08-04T10:10:35;11.48;;;2.65;;
19903;SDS011;10114;50.970;4.962;2022-08-04T10:29:13;14.82;;;4.03;;
19903;SDS011;10114;50.970;4.962;2022-08-04T10:31:52;13.50;;;4.45;;
19903;SDS011;10114;50.970;4.962;2022-08-04T10:34:20;11.07;;;4.70;;
19903;SDS011;10114;50.970;4.962;2022-08-04T10:37:03;14.20;;;5.57;;
19903;SDS011;10114;50.970;4.962;2022-08-04T10:42:11;17.17;;;6.15;;
19903;SDS011;10114;50.970;4.962;2022-08-04T10:47:14;11.57;;;5.47;;
19903;SDS011;10114;50.970;4.962;2022-08-04T10:50:00;18.73;;;5.80;;
19903;SDS011;10114;50.970;4.962;2022-08-04T10:52:33;11.30;;;5.28;;
19903;SDS011;10114;50.970;4.962;2022-08-04T10:55:04;14.10;;;6.05;;
19903;SDS011;10114;50.970;4.962;2022-08-04T10:57:54;17.48;;;6.43;;
19903;SDS011;10114;50.970;4.962;2022-08-04T11:00:24;13.75;;;6.40;;
19903;SDS011;10114;50.970;4.962;2022-08-04T11:08:15;15.90;;;6.35;;
19903;SDS011;10114;50.970;4.962;2022-08-04T11:10:47;18.98;;;7.13;;
19903;SDS011;10114;50.970;4.962;2022-08-04T11:13:16;21.25;;;6.88;;
19903;SDS011;10114;50.970;4.962;2022-08-04T11:15:47;12.88;;;5.80;;
19903;SDS011;10114;50.970;4.962;2022-08-04T11:18:34;13.50;;;5.65;;
19903;SDS011;10114;50.970;4.962;2022-08-04T11:21:09;14.68;;;5.28;;
19903;SDS011;10114;50.970;4.962;2022-08-04T11:23:36;11.38;;;4.53;;
19903;SDS011;10114;50.970;4.962;2022-08-04T11:26:11;15.50;;;4.43;;
19903;SDS011;10114;50.970;4.962;2022-08-04T11:31:05;13.65;;;4.47;;
19903;SDS011;10114;50.970;4.962;2022-08-04T11:36:21;14.52;;;5.63;;
19903;SDS011;10114;50.970;4.962;2022-08-04T11:44:11;12.68;;;4.05;;
19903;SDS011;10114;50.970;4.962;2022-08-04T11:46:42;11.25;;;4.03;;
19903;SDS011;10114;50.970;4.962;2022-08-04T11:51:54;16.35;;;4.68;;
19903;SDS011;10114;50.970;4.962;2022-08-04T11:54:20;18.67;;;4.43;;
19903;SDS011;10114;50.970;4.962;2022-08-04T11:56:47;13.88;;;4.53;;
19903;SDS011;10114;50.970;4.962;2022-08-04T11:59:13;13.18;;;5.05;;
19903;SDS011;10114;50.970;4.962;2022-08-04T12:04:33;11.27;;;4.00;;
19903;SDS011;10114;50.970;4.962;2022-08-04T12:07:04;10.93;;;4.72;;
19903;SDS011;10114;50.970;4.962;2022-08-04T12:10:17;8.50;;;4.07;;
19903;SDS011;10114;50.970;4.962;2022-08-04T12:12:34;12.77;;;4.35;;
19903;SDS011;10114;50.970;4.962;2022-08-04T12:15:25;9.82;;;3.58;;
19903;SDS011;10114;50.970;4.962;2022-08-04T12:20:40;8.95;;;3.67;;
19903;SDS011;10114;50.970;4.962;2022-08-04T12:23:24;9.75;;;4.13;;
19903;SDS011;10114;50.970;4.962;2022-08-04T12:25:52;9.55;;;4.03;;
19903;SDS011;10114;50.970;4.962;2022-08-04T12:28:27;11.13;;;3.92;;
19903;SDS011;10114;50.970;4.962;2022-08-04T12:30:59;11.82;;;4.20;;
19903;SDS011;10114;50.970;4.962;2022-08-04T12:33:30;11.07;;;3.78;;
19903;SDS011;10114;50.970;4.962;2022-08-04T12:35:59;12.13;;;3.90;;
19903;SDS011;10114;50.970;4.962;2022-08-04T12:38:28;7.53;;;3.78;;
19903;SDS011;10114;50.970;4.962;2022-08-04T12:40:57;9.50;;;3.78;;
19903;SDS011;10114;50.970;4.962;2022-08-04T12:43:42;11.02;;;3.90;;
19903;SDS011;10114;50.970;4.962;2022-08-04T12:46:09;13.25;;;4.25;;
19903;SDS011;10114;50.970;4.962;2022-08-04T12:48:37;10.48;;;4.07;;
19903;SDS011;10114;50.970;4.962;2022-08-04T12:51:03;11.57;;;3.95;;
19903;SDS011;10114;50.970;4.962;2022-08-04T12:53:36;10.63;;;3.55;;
19903;SDS011;10114;50.970;4.962;2022-08-04T12:56:02;12.50;;;4.30;;
19903;SDS011;10114;50.970;4.962;2022-08-04T12:58:30;12.93;;;4.13;;
19903;SDS011;10114;50.970;4.962;2022-08-04T13:00:58;12.73;;;3.70;;
19903;SDS011;10114;50.970;4.962;2022-08-04T13:03:27;11.18;;;4.30;;
19903;SDS011;10114;50.970;4.962;2022-08-04T13:05:53;9.82;;;3.90;;
19903;SDS011;10114;50.970;4.962;2022-08-04T13:08:20;9.98;;;4.43;;
19903;SDS011;10114;50.970;4.962;2022-08-04T13:10:47;12.65;;;4.78;;
19903;SDS011;10114;50.970;4.962;2022-08-04T13:13:21;15.32;;;5.68;;
19903;SDS011;10114;50.970;4.962;2022-08-04T13:18:21;11.07;;;4.68;;
19903;SDS011;10114;50.970;4.962;2022-08-04T13:20:47;9.20;;;4.97;;
19903;SDS011;10114;50.970;4.962;2022-08-04T13:23:17;12.25;;;4.60;;
19903;SDS011;10114;50.970;4.962;2022-08-04T13:25:45;10.45;;;5.13;;
19903;SDS011;10114;50.970;4.962;2022-08-04T13:28:13;9.68;;;4.40;;
19903;SDS011;10114;50.970;4.962;2022-08-04T13:30:39;10.55;;;4.78;;
19903;SDS011;10114;50.970;4.962;2022-08-04T13:33:08;15.60;;;5.55;;
19903;SDS011;10114;50.970;4.962;2022-08-04T13:35:35;9.10;;;4.32;;
19903;SDS011;10114;50.970;4.962;2022-08-04T13:38:07;11.82;;;5.03;;
19903;SDS011;10114;50.970;4.962;2022-08-04T13:40:35;13.70;;;5.15;;
19903;SDS011;10114;50.970;4.962;2022-08-04T13:43:02;9.75;;;4.22;;
19903;SDS011;10114;50.970;4.962;2022-08-04T13:45:28;16.33;;;5.38;;
19903;SDS011;10114;50.970;4.962;2022-08-04T13:47:58;11.10;;;4.43;;
19903;SDS011;10114;50.970;4.962;2022-08-04T13:50:26;16.10;;;4.72;;
19903;SDS011;10114;50.970;4.962;2022-08-04T13:52:57;9.98;;;4.95;;
19903;SDS011;10114;50.970;4.962;2022-08-04T13:57:52;13.02;;;4.55;;
19903;SDS011;10114;50.970;4.962;2022-08-04T14:00:19;12.73;;;4.07;;
19903;SDS011;10114;50.970;4.962;2022-08-04T14:02:55;15.20;;;4.90;;
19903;SDS011;10114;50.970;4.962;2022-08-04T14:05:25;8.52;;;3.30;;
19903;SDS011;10114;50.970;4.962;2022-08-04T14:10:30;12.68;;;4.55;;
19903;SDS011;10114;50.970;4.962;2022-08-04T14:12:56;11.40;;;3.92;;
19903;SDS011;10114;50.970;4.962;2022-08-04T14:18:01;11.57;;;4.28;;
19903;SDS011;10114;50.970;4.962;2022-08-04T14:20:50;7.93;;;3.67;;
19903;SDS011;10114;50.970;4.962;2022-08-04T14:23:22;10.07;;;3.42;;
19903;SDS011;10114;50.970;4.962;2022-08-04T14:25:49;49.47;;;5.80;;
19903;SDS011;10114;50.970;4.962;2022-08-04T14:28:25;10.90;;;3.90;;
19903;SDS011;10114;50.970;4.962;2022-08-04T14:30:51;10.55;;;4.13;;
19903;SDS011;10114;50.970;4.962;2022-08-04T14:33:40;8.88;;;3.75;;
19903;SDS011;10114;50.970;4.962;2022-08-04T14:36:06;90.35;;;6.25;;
19903;SDS011;10114;50.970;4.962;2022-08-04T14:41:11;64.15;;;5.20;;
19903;SDS011;10114;50.970;4.962;2022-08-04T14:43:41;23.67;;;3.90;;
19903;SDS011;10114;50.970;4.962;2022-08-04T14:46:08;7.35;;;2.65;;
19903;SDS011;10114;50.970;4.962;2022-08-04T14:48:35;34.63;;;4.43;;
19903;SDS011;10114;50.970;4.962;2022-08-04T14:51:01;8.48;;;3.40;;
19903;SDS011;10114;50.970;4.962;2022-08-04T14:53:27;11.32;;;3.25;;
19903;SDS011;10114;50.970;4.962;2022-08-04T14:55:54;11.40;;;3.50;;
19903;SDS011;10114;50.970;4.962;2022-08-04T15:00:52;9.25;;;3.20;;
19903;SDS011;10114;50.970;4.962;2022-08-04T15:03:19;9.25;;;2.75;;
19903;SDS011;10114;50.970;4.962;2022-08-04T15:05:48;9.45;;;3.50;;
19903;SDS011;10114;50.970;4.962;2022-08-04T15:08:15;9.73;;;3.63;;
19903;SDS011;10114;50.970;4.962;2022-08-04T15:10:41;9.15;;;3.58;;
19903;SDS011;10114;50.970;4.962;2022-08-04T15:13:09;6.40;;;3.00;;
19903;SDS011;10114;50.970;4.962;2022-08-04T15:15:37;10.15;;;3.63;;
19903;SDS011;10114;50.970;4.962;2022-08-04T15:18:06;9.88;;;3.78;;
19903;SDS011;10114;50.970;4.962;2022-08-04T15:20:32;12.60;;;3.28;;
19903;SDS011;10114;50.970;4.962;2022-08-04T15:22:58;7.40;;;3.17;;
19903;SDS011;10114;50.970;4.962;2022-08-04T15:25:26;11.30;;;3.22;;
19903;SDS011;10114;50.970;4.962;2022-08-04T15:27:52;12.30;;;4.30;;
19903;SDS011;10114;50.970;4.962;2022-08-04T15:30:20;10.57;;;3.90;;
19903;SDS011;10114;50.970;4.962;2022-08-04T15:32:47;8.82;;;2.65;;
19903;SDS011;10114;50.970;4.962;2022-08-04T15:35:24;11.00;;;3.95;;
19903;SDS011;10114;50.970;4.962;2022-08-04T15:45:56;11.60;;;3.17;;
19903;SDS011;10114;50.970;4.962;2022-08-04T15:48:24;8.65;;;3.22;;
19903;SDS011;10114;50.970;4.962;2022-08-04T15:53:23;7.47;;;3.35;;
19903;SDS011;10114;50.970;4.962;2022-08-04T15:55:49;10.75;;;3.03;;
19903;SDS011;10114;50.970;4.962;2022-08-04T15:58:18;11.20;;;2.95;;
19903;SDS011;10114;50.970;4.962;2022-08-04T16:05:59;6.93;;;2.78;;
19903;SDS011;10114;50.970;4.962;2022-08-04T16:08:25;6.35;;;3.15;;
19903;SDS011;10114;50.970;4.962;2022-08-04T16:10:51;9.10;;;3.28;;
19903;SDS011;10114;50.970;4.962;2022-08-04T16:13:21;8.93;;;3.17;;
19903;SDS011;10114;50.970;4.962;2022-08-04T16:19:02;7.30;;;2.95;;
19903;SDS011;10114;50.970;4.962;2022-08-04T16:21:01;11.82;;;3.35;;
19903;SDS011;10114;50.970;4.962;2022-08-04T16:26:00;7.13;;;3.08;;
19903;SDS011;10114;50.970;4.962;2022-08-04T16:28:36;9.63;;;3.67;;
19903;SDS011;10114;50.970;4.962;2022-08-04T16:31:06;10.30;;;3.60;;
19903;SDS011;10114;50.970;4.962;2022-08-04T16:33:33;8.80;;;3.00;;
19903;SDS011;10114;50.970;4.962;2022-08-04T16:35:59;9.77;;;3.58;;
19903;SDS011;10114;50.970;4.962;2022-08-04T16:38:26;8.60;;;3.42;;
19903;SDS011;10114;50.970;4.962;2022-08-04T16:40:56;10.82;;;3.83;;
19903;SDS011;10114;50.970;4.962;2022-08-04T16:43:26;8.40;;;3.63;;
19903;SDS011;10114;50.970;4.962;2022-08-04T16:46:01;7.75;;;3.35;;
19903;SDS011;10114;50.970;4.962;2022-08-04T16:48:28;9.98;;;3.38;;
19903;SDS011;10114;50.970;4.962;2022-08-04T16:53:24;8.00;;;3.40;;
19903;SDS011;10114;50.970;4.962;2022-08-04T16:55:51;8.77;;;3.47;;
19903;SDS011;10114;50.970;4.962;2022-08-04T16:58:25;15.35;;;3.53;;
19903;SDS011;10114;50.970;4.962;2022-08-04T17:00:52;9.32;;;3.25;;
19903;SDS011;10114;50.970;4.962;2022-08-04T17:03:18;11.48;;;4.43;;
19903;SDS011;10114;50.970;4.962;2022-08-04T17:05:44;7.80;;;3.45;;
19903;SDS011;10114;50.970;4.962;2022-08-04T17:08:10;7.75;;;3.63;;
19903;SDS011;10114;50.970;4.962;2022-08-04T17:15:49;10.18;;;4.20;;
19903;SDS011;10114;50.970;4.962;2022-08-04T17:18:20;10.43;;;4.20;;
19903;SDS011;10114;50.970;4.962;2022-08-04T17:20:46;10.27;;;3.97;;
19903;SDS011;10114;50.970;4.962;2022-08-04T17:23:22;8.18;;;3.38;;
19903;SDS011;10114;50.970;4.962;2022-08-04T17:28:38;12.68;;;3.80;;
19903;SDS011;10114;50.970;4.962;2022-08-04T17:31:05;8.10;;;3.30;;
19903;SDS011;10114;50.970;4.962;2022-08-04T17:33:34;7.22;;;3.63;;
19903;SDS011;10114;50.970;4.962;2022-08-04T17:36:00;11.18;;;3.10;;
19903;SDS011;10114;50.970;4.962;2022-08-04T17:41:09;8.43;;;2.65;;
19903;SDS011;10114;50.970;4.962;2022-08-04T17:43:40;6.60;;;2.40;;
19903;SDS011;10114;50.970;4.962;2022-08-04T17:46:13;9.02;;;2.60;;
19903;SDS011;10114;50.970;4.962;2022-08-04T17:48:39;8.27;;;2.40;;
19903;SDS011;10114;50.970;4.962;2022-08-04T17:51:16;6.72;;;2.28;;
19903;SDS011;10114;50.970;4.962;2022-08-04T17:53:42;7.68;;;2.65;;
19903;SDS011;10114;50.970;4.962;2022-08-04T17:59:06;7.50;;;2.30;;
19903;SDS011;10114;50.970;4.962;2022-08-04T18:01:43;8.48;;;2.72;;
19903;SDS011;10114;50.970;4.962;2022-08-04T18:07:16;8.20;;;2.20;;
19903;SDS011;10114;50.970;4.962;2022-08-04T18:12:10;8.77;;;2.92;;
19903;SDS011;10114;50.970;4.962;2022-08-04T18:14:41;11.30;;;2.75;;
19903;SDS011;10114;50.970;4.962;2022-08-04T18:17:07;6.50;;;2.33;;
19903;SDS011;10114;50.970;4.962;2022-08-04T18:19:34;7.50;;;3.03;;
19903;SDS011;10114;50.970;4.962;2022-08-04T18:22:03;8.65;;;2.53;;
19903;SDS011;10114;50.970;4.962;2022-08-04T18:24:31;6.82;;;2.28;;
19903;SDS011;10114;50.970;4.962;2022-08-04T18:26:57;8.95;;;2.53;;
19903;SDS011;10114;50.970;4.962;2022-08-04T18:29:23;8.10;;;2.85;;
19903;SDS011;10114;50.970;4.962;2022-08-04T18:31:49;4.65;;;2.30;;
19903;SDS011;10114;50.970;4.962;2022-08-04T18:34:15;8.35;;;2.50;;
19903;SDS011;10114;50.970;4.962;2022-08-04T18:36:41;7.32;;;2.15;;
19903;SDS011;10114;50.970;4.962;2022-08-04T18:39:08;7.40;;;2.13;;
19903;SDS011;10114;50.970;4.962;2022-08-04T18:41:34;8.00;;;2.05;;
19903;SDS011;10114;50.970;4.962;2022-08-04T18:44:00;5.57;;;2.22;;
19903;SDS011;10114;50.970;4.962;2022-08-04T18:46:27;5.03;;;1.95;;
19903;SDS011;10114;50.970;4.962;2022-08-04T18:48:53;6.78;;;2.25;;
19903;SDS011;10114;50.970;4.962;2022-08-04T18:51:19;8.10;;;2.75;;
19903;SDS011;10114;50.970;4.962;2022-08-04T18:53:46;7.55;;;2.10;;
19903;SDS011;10114;50.970;4.962;2022-08-04T18:56:12;8.55;;;2.25;;
19903;SDS011;10114;50.970;4.962;2022-08-04T18:58:39;6.38;;;2.25;;
19903;SDS011;10114;50.970;4.962;2022-08-04T19:01:05;8.35;;;2.28;;
19903;SDS011;10114;50.970;4.962;2022-08-04T19:03:32;8.43;;;3.35;;
19903;SDS011;10114;50.970;4.962;2022-08-04T19:05:59;5.95;;;2.50;;
19903;SDS011;10114;50.970;4.962;2022-08-04T19:08:26;8.68;;;2.65;;
19903;SDS011;10114;50.970;4.962;2022-08-04T19:10:52;7.05;;;1.98;;